createdAt,value
2017-05-17T00:00:31.590Z,18.82
2017-05-17T00:01:12.136Z,18.76
2017-05-17T00:01:52.702Z,18.78
2017-05-17T00:02:33.266Z,18.82
2017-05-17T00:03:13.797Z,18.81
2017-05-17T00:03:54.336Z,18.76
2017-05-17T00:04:34.874Z,18.78
2017-05-17T00:05:15.428Z,18.76
2017-05-17T00:05:55.956Z,18.76
2017-05-17T00:06:36.482Z,18.78
2017-05-17T00:07:17.038Z,18.76
2017-05-17T00:07:57.573Z,18.78
2017-05-17T00:08:38.167Z,18.78
2017-05-17T00:09:18.674Z,18.8
2017-05-17T00:09:59.282Z,18.76
2017-05-17T00:10:39.782Z,18.82
2017-05-17T00:11:20.322Z,18.82
2017-05-17T00:12:00.866Z,18.76
2017-05-17T00:12:41.396Z,18.81
2017-05-17T00:13:21.968Z,18.78
2017-05-17T00:14:02.514Z,18.78
2017-05-17T00:14:43.047Z,18.84
2017-05-17T00:15:23.593Z,18.8
2017-05-17T00:16:04.134Z,18.76
2017-05-17T00:16:44.669Z,18.81
2017-05-17T00:17:25.202Z,18.78
2017-05-17T00:18:05.734Z,18.82
2017-05-17T00:18:46.279Z,18.8
2017-05-17T00:19:26.825Z,18.76
2017-05-17T00:20:07.357Z,18.73
2017-05-17T00:20:47.852Z,18.67
2017-05-17T00:21:28.426Z,18.72
2017-05-17T00:22:08.932Z,18.69
2017-05-17T00:22:49.480Z,18.78
2017-05-17T00:23:30.050Z,18.78
2017-05-17T00:24:10.617Z,18.7
2017-05-17T00:24:51.186Z,18.76
2017-05-17T00:25:31.716Z,18.78
2017-05-17T00:26:12.257Z,18.75
2017-05-17T00:26:52.819Z,18.8
2017-05-17T00:27:33.357Z,18.76
2017-05-17T00:28:13.891Z,18.73
2017-05-17T00:28:54.459Z,18.81
2017-05-17T00:29:34.970Z,18.8
2017-05-17T00:30:15.538Z,18.76
2017-05-17T00:30:56.090Z,18.78
2017-05-17T00:31:36.621Z,18.81
2017-05-17T00:32:17.193Z,18.81
2017-05-17T00:32:57.747Z,18.75
2017-05-17T00:33:38.299Z,18.8
2017-05-17T00:34:18.839Z,18.82
2017-05-17T00:34:59.373Z,18.81
2017-05-17T00:35:39.899Z,18.81
2017-05-17T00:36:20.445Z,18.82
2017-05-17T00:37:00.961Z,18.78
2017-05-17T00:37:41.492Z,18.78
2017-05-17T00:38:22.029Z,18.78
2017-05-17T00:39:02.557Z,18.78
2017-05-17T00:39:43.099Z,18.76
2017-05-17T00:40:23.645Z,18.84
2017-05-17T00:41:04.197Z,18.7
2017-05-17T00:41:44.735Z,18.73
2017-05-17T00:42:25.305Z,18.76
2017-05-17T00:43:05.855Z,18.84
2017-05-17T00:43:46.405Z,18.76
2017-05-17T00:44:26.954Z,18.76
2017-05-17T00:45:07.505Z,18.78
2017-05-17T00:45:48.061Z,18.8
2017-05-17T00:46:28.576Z,18.78
2017-05-17T00:47:09.109Z,18.76
2017-05-17T00:47:49.655Z,18.8
2017-05-17T00:48:30.204Z,18.76
2017-05-17T00:49:10.725Z,18.81
2017-05-17T00:49:51.270Z,18.76
2017-05-17T00:50:31.818Z,18.8
2017-05-17T00:51:12.361Z,18.72
2017-05-17T00:51:52.910Z,18.81
2017-05-17T00:52:33.449Z,18.78
2017-05-17T00:53:14.006Z,18.78
2017-05-17T00:53:54.530Z,18.78
2017-05-17T00:54:35.078Z,18.8
2017-05-17T00:55:15.610Z,18.73
2017-05-17T00:55:56.164Z,18.75
2017-05-17T00:56:36.697Z,18.82
2017-05-17T00:57:17.248Z,18.82
2017-05-17T00:57:57.810Z,18.78
2017-05-17T00:58:38.347Z,18.78
2017-05-17T00:59:18.899Z,18.78
2017-05-17T00:59:59.503Z,18.75
2017-05-17T01:00:40.046Z,18.78
2017-05-17T01:01:20.595Z,18.8
2017-05-17T01:02:01.159Z,18.75
2017-05-17T01:02:41.709Z,18.65
2017-05-17T01:03:22.262Z,18.72
2017-05-17T01:04:02.777Z,18.69
2017-05-17T01:04:43.324Z,18.75
2017-05-17T01:05:23.869Z,18.67
2017-05-17T01:06:04.407Z,18.67
2017-05-17T01:06:44.931Z,18.69
2017-05-17T01:07:25.482Z,18.76
2017-05-17T01:08:06.032Z,18.65
2017-05-17T01:08:46.617Z,18.66
2017-05-17T01:09:27.166Z,18.69
2017-05-17T01:10:07.777Z,18.63
2017-05-17T01:10:48.277Z,18.66
2017-05-17T01:11:28.825Z,18.6
2017-05-17T01:12:09.386Z,18.69
2017-05-17T01:12:49.937Z,18.63
2017-05-17T01:13:30.502Z,18.65
2017-05-17T01:14:11.052Z,18.66
2017-05-17T01:14:51.590Z,18.65
2017-05-17T01:15:32.126Z,18.63
2017-05-17T01:16:12.688Z,18.6
2017-05-17T01:16:53.265Z,18.62
2017-05-17T01:17:33.808Z,18.55
2017-05-17T01:18:14.356Z,18.65
2017-05-17T01:18:54.886Z,18.62
2017-05-17T01:19:35.425Z,18.6
2017-05-17T01:20:15.964Z,18.62
2017-05-17T01:20:56.491Z,18.6
2017-05-17T01:21:37.060Z,18.52
2017-05-17T01:22:17.594Z,18.51
2017-05-17T01:22:58.135Z,18.52
2017-05-17T01:23:38.688Z,18.5
2017-05-17T01:24:19.227Z,18.5
2017-05-17T01:24:59.772Z,18.5
2017-05-17T01:25:40.318Z,18.48
2017-05-17T01:26:20.893Z,18.5
2017-05-17T01:27:01.375Z,18.52
2017-05-17T01:27:41.913Z,18.48
2017-05-17T01:28:22.468Z,18.45
2017-05-17T01:29:03.007Z,18.55
2017-05-17T01:29:43.560Z,18.54
2017-05-17T01:30:24.104Z,18.48
2017-05-17T01:31:04.654Z,18.48
2017-05-17T01:31:45.184Z,18.47
2017-05-17T01:32:25.746Z,18.36
2017-05-17T01:33:06.293Z,18.44
2017-05-17T01:33:46.811Z,18.41
2017-05-17T01:34:27.339Z,18.3
2017-05-17T01:35:07.880Z,18.33
2017-05-17T01:35:48.420Z,18.36
2017-05-17T01:36:28.937Z,18.37
2017-05-17T01:37:09.467Z,18.35
2017-05-17T01:37:50.000Z,18.35
2017-05-17T01:38:30.627Z,18.39
2017-05-17T01:39:11.157Z,18.33
2017-05-17T01:39:51.681Z,18.36
2017-05-17T01:40:32.217Z,18.35
2017-05-17T01:41:12.747Z,18.39
2017-05-17T01:41:53.289Z,18.41
2017-05-17T01:42:33.827Z,18.32
2017-05-17T01:43:14.367Z,18.32
2017-05-17T01:43:54.885Z,18.36
2017-05-17T01:44:35.417Z,18.36
2017-05-17T01:45:15.954Z,18.3
2017-05-17T01:45:56.504Z,18.39
2017-05-17T01:46:37.065Z,18.27
2017-05-17T01:47:17.605Z,18.32
2017-05-17T01:47:58.139Z,18.33
2017-05-17T01:48:38.668Z,18.39
2017-05-17T01:49:19.212Z,18.42
2017-05-17T01:49:59.813Z,18.32
2017-05-17T01:50:40.281Z,18.32
2017-05-17T01:51:20.817Z,18.39
2017-05-17T01:52:01.356Z,18.35
2017-05-17T01:52:41.889Z,18.36
2017-05-17T01:53:22.413Z,18.37
2017-05-17T01:54:02.948Z,18.35
2017-05-17T01:54:43.478Z,18.41
2017-05-17T01:55:24.008Z,18.3
2017-05-17T01:56:04.557Z,18.26
2017-05-17T01:56:45.075Z,18.39
2017-05-17T01:57:25.605Z,18.35
2017-05-17T01:58:06.141Z,18.42
2017-05-17T01:58:46.717Z,18.27
2017-05-17T01:59:27.237Z,18.35
2017-05-17T02:00:07.787Z,18.3
2017-05-17T02:00:48.345Z,18.3
2017-05-17T02:01:28.905Z,18.35
2017-05-17T02:02:09.478Z,18.33
2017-05-17T02:02:50.019Z,18.32
2017-05-17T02:03:30.579Z,18.39
2017-05-17T02:04:11.101Z,18.35
2017-05-17T02:04:51.641Z,18.27
2017-05-17T02:05:32.234Z,18.36
2017-05-17T02:06:12.834Z,18.37
2017-05-17T02:06:53.395Z,18.35
2017-05-17T02:07:33.945Z,18.33
2017-05-17T02:08:14.559Z,18.32
2017-05-17T02:08:55.042Z,18.35
2017-05-17T02:09:35.596Z,18.29
2017-05-17T02:10:16.091Z,18.37
2017-05-17T02:10:56.660Z,18.36
2017-05-17T02:11:37.255Z,18.32
2017-05-17T02:12:17.799Z,18.29
2017-05-17T02:12:58.390Z,18.26
2017-05-17T02:13:38.872Z,18.35
2017-05-17T02:14:19.404Z,18.36
2017-05-17T02:14:59.940Z,18.36
2017-05-17T02:15:40.497Z,18.27
2017-05-17T02:16:21.042Z,18.27
2017-05-17T02:17:01.602Z,18.26
2017-05-17T02:17:42.144Z,18.25
2017-05-17T02:18:22.699Z,18.23
2017-05-17T02:19:03.231Z,18.23
2017-05-17T02:19:43.797Z,18.26
2017-05-17T02:20:24.327Z,18.25
2017-05-17T02:21:04.862Z,18.27
2017-05-17T02:21:45.409Z,18.29
2017-05-17T02:22:25.959Z,18.17
2017-05-17T02:23:06.554Z,18.3
2017-05-17T02:23:47.091Z,18.3
2017-05-17T02:24:27.697Z,18.29
2017-05-17T02:25:08.281Z,18.3
2017-05-17T02:25:48.819Z,18.29
2017-05-17T02:26:29.381Z,18.26
2017-05-17T02:27:09.926Z,18.23
2017-05-17T02:27:50.484Z,18.33
2017-05-17T02:28:31.029Z,18.23
2017-05-17T02:29:11.597Z,18.26
2017-05-17T02:29:52.145Z,18.29
2017-05-17T02:30:32.703Z,18.23
2017-05-17T02:31:13.263Z,18.26
2017-05-17T02:31:53.790Z,18.26
2017-05-17T02:32:34.330Z,18.26
2017-05-17T02:33:14.881Z,18.18
2017-05-17T02:33:55.454Z,18.15
2017-05-17T02:34:35.992Z,18.2
2017-05-17T02:35:16.521Z,18.25
2017-05-17T02:35:57.099Z,18.23
2017-05-17T02:36:37.614Z,18.15
2017-05-17T02:37:18.179Z,18.18
2017-05-17T02:37:58.788Z,18.15
2017-05-17T02:38:39.320Z,18.17
2017-05-17T02:39:19.861Z,18.14
2017-05-17T02:40:00.382Z,18.14
2017-05-17T02:40:40.916Z,18.17
2017-05-17T02:41:21.466Z,18.1
2017-05-17T02:42:01.985Z,18.14
2017-05-17T02:42:42.540Z,18.12
2017-05-17T02:43:23.089Z,18.12
2017-05-17T02:44:03.685Z,18.15
2017-05-17T02:44:44.136Z,18.12
2017-05-17T02:45:24.670Z,18.18
2017-05-17T02:46:05.202Z,18.1
2017-05-17T02:46:45.739Z,18.12
2017-05-17T02:47:26.326Z,18.12
2017-05-17T02:48:06.845Z,18.14
2017-05-17T02:48:47.385Z,18.12
2017-05-17T02:49:27.957Z,18.17
2017-05-17T02:50:08.484Z,18.11
2017-05-17T02:50:49.033Z,18.12
2017-05-17T02:51:29.561Z,18.11
2017-05-17T02:52:10.125Z,18.03
2017-05-17T02:52:50.678Z,18.1
2017-05-17T02:53:31.239Z,18.07
2017-05-17T02:54:11.779Z,18.12
2017-05-17T02:54:52.342Z,18.08
2017-05-17T02:55:32.886Z,18.08
2017-05-17T02:56:13.429Z,18.05
2017-05-17T02:56:53.942Z,18.14
2017-05-17T02:57:34.545Z,18.05
2017-05-17T02:58:15.114Z,18.03
2017-05-17T02:58:55.655Z,18.07
2017-05-17T02:59:36.217Z,18.05
2017-05-17T03:00:16.759Z,18.02
2017-05-17T03:00:57.261Z,18.03
2017-05-17T03:01:37.795Z,18.07
2017-05-17T03:02:18.342Z,18.05
2017-05-17T03:02:58.888Z,18.02
2017-05-17T03:03:39.422Z,18.05
2017-05-17T03:04:19.972Z,17.99
2017-05-17T03:05:00.548Z,17.99
2017-05-17T03:05:41.094Z,17.92
2017-05-17T03:06:21.643Z,18
2017-05-17T03:07:02.178Z,18
2017-05-17T03:07:42.722Z,17.92
2017-05-17T03:08:23.276Z,17.92
2017-05-17T03:09:03.821Z,17.93
2017-05-17T03:09:44.355Z,18.05
2017-05-17T03:10:24.909Z,17.99
2017-05-17T03:11:05.460Z,17.96
2017-05-17T03:11:46.007Z,17.99
2017-05-17T03:12:26.548Z,17.95
2017-05-17T03:13:07.109Z,17.93
2017-05-17T03:13:47.673Z,17.89
2017-05-17T03:14:28.193Z,17.96
2017-05-17T03:15:08.762Z,17.95
2017-05-17T03:15:49.256Z,17.99
2017-05-17T03:16:29.784Z,17.95
2017-05-17T03:17:10.327Z,17.97
2017-05-17T03:17:50.863Z,17.92
2017-05-17T03:18:31.443Z,17.9
2017-05-17T03:19:11.980Z,17.95
2017-05-17T03:19:52.533Z,17.84
2017-05-17T03:20:33.079Z,17.9
2017-05-17T03:21:13.605Z,17.92
2017-05-17T03:21:54.141Z,17.93
2017-05-17T03:22:34.661Z,17.79
2017-05-17T03:23:15.189Z,17.77
2017-05-17T03:23:55.724Z,17.92
2017-05-17T03:24:36.287Z,17.79
2017-05-17T03:25:16.859Z,17.74
2017-05-17T03:25:57.344Z,17.77
2017-05-17T03:26:37.910Z,17.77
2017-05-17T03:27:18.429Z,17.78
2017-05-17T03:27:58.975Z,17.79
2017-05-17T03:28:39.538Z,17.75
2017-05-17T03:29:20.086Z,17.72
2017-05-17T03:30:00.625Z,17.74
2017-05-17T03:30:41.165Z,17.75
2017-05-17T03:31:21.703Z,17.79
2017-05-17T03:32:02.239Z,17.74
2017-05-17T03:32:42.776Z,17.77
2017-05-17T03:33:23.355Z,17.74
2017-05-17T03:34:03.829Z,17.71
2017-05-17T03:34:44.369Z,17.74
2017-05-17T03:35:24.905Z,17.77
2017-05-17T03:36:05.455Z,17.71
2017-05-17T03:36:46.023Z,17.75
2017-05-17T03:37:26.578Z,17.78
2017-05-17T03:38:07.142Z,17.72
2017-05-17T03:38:47.708Z,17.77
2017-05-17T03:39:28.253Z,17.74
2017-05-17T03:40:08.819Z,17.7
2017-05-17T03:40:49.363Z,17.77
2017-05-17T03:41:29.885Z,17.74
2017-05-17T03:42:10.521Z,17.74
2017-05-17T03:42:51.031Z,17.63
2017-05-17T03:43:31.642Z,17.75
2017-05-17T03:44:12.580Z,17.74
2017-05-17T03:44:53.100Z,17.77
2017-05-17T03:45:33.645Z,17.78
2017-05-17T03:46:14.230Z,17.77
2017-05-17T03:46:54.743Z,17.78
2017-05-17T03:47:35.290Z,17.74
2017-05-17T03:48:15.806Z,17.75
2017-05-17T03:48:56.396Z,17.79
2017-05-17T03:49:36.942Z,17.72
2017-05-17T03:50:17.489Z,17.74
2017-05-17T03:50:58.029Z,17.75
2017-05-17T03:51:38.582Z,17.78
2017-05-17T03:52:19.143Z,17.74
2017-05-17T03:52:59.685Z,17.72
2017-05-17T03:53:40.255Z,17.68
2017-05-17T03:54:20.797Z,17.7
2017-05-17T03:55:01.337Z,17.68
2017-05-17T03:55:41.917Z,17.74
2017-05-17T03:56:22.481Z,17.7
2017-05-17T03:57:02.990Z,17.62
2017-05-17T03:57:43.539Z,17.72
2017-05-17T03:58:24.089Z,17.68
2017-05-17T03:59:04.650Z,17.71
2017-05-17T03:59:45.183Z,17.66
2017-05-17T04:00:25.721Z,17.66
2017-05-17T04:01:06.302Z,17.64
2017-05-17T04:01:46.835Z,17.71
2017-05-17T04:02:27.347Z,17.68
2017-05-17T04:03:07.924Z,17.68
2017-05-17T04:03:48.434Z,17.7
2017-05-17T04:04:28.998Z,17.64
2017-05-17T04:05:09.593Z,17.64
2017-05-17T04:05:50.114Z,17.64
2017-05-17T04:06:30.608Z,17.66
2017-05-17T04:07:11.139Z,17.72
2017-05-17T04:07:51.677Z,17.64
2017-05-17T04:08:32.206Z,17.62
2017-05-17T04:09:12.756Z,17.66
2017-05-17T04:09:53.254Z,17.63
2017-05-17T04:10:33.796Z,17.66
2017-05-17T04:11:14.368Z,17.7
2017-05-17T04:11:54.935Z,17.72
2017-05-17T04:12:35.489Z,17.66
2017-05-17T04:13:16.009Z,17.58
2017-05-17T04:13:56.576Z,17.64
2017-05-17T04:14:37.113Z,17.58
2017-05-17T04:15:17.633Z,17.7
2017-05-17T04:15:58.193Z,17.7
2017-05-17T04:16:38.722Z,17.64
2017-05-17T04:17:19.246Z,17.79
2017-05-17T04:17:59.814Z,17.62
2017-05-17T04:18:40.368Z,17.66
2017-05-17T04:19:20.885Z,17.74
2017-05-17T04:20:01.435Z,17.72
2017-05-17T04:20:42.010Z,17.71
2017-05-17T04:21:22.712Z,17.78
2017-05-17T04:22:03.270Z,17.75
2017-05-17T04:22:43.755Z,17.79
2017-05-17T04:23:24.320Z,17.79
2017-05-17T04:24:04.818Z,17.72
2017-05-17T04:24:45.450Z,17.86
2017-05-17T04:25:26.006Z,17.81
2017-05-17T04:26:06.581Z,17.79
2017-05-17T04:26:47.180Z,17.74
2017-05-17T04:27:27.736Z,17.84
2017-05-17T04:28:08.310Z,17.75
2017-05-17T04:28:48.871Z,17.77
2017-05-17T04:29:29.420Z,17.71
2017-05-17T04:30:09.965Z,17.71
2017-05-17T04:30:50.511Z,17.77
2017-05-17T04:31:31.035Z,17.78
2017-05-17T04:32:11.618Z,17.77
2017-05-17T04:32:52.126Z,17.77
2017-05-17T04:33:32.656Z,17.79
2017-05-17T04:34:13.218Z,17.79
2017-05-17T04:34:53.756Z,17.79
2017-05-17T04:35:34.286Z,17.82
2017-05-17T04:36:14.870Z,17.82
2017-05-17T04:36:55.453Z,17.86
2017-05-17T04:37:36.019Z,17.93
2017-05-17T04:38:16.583Z,17.9
2017-05-17T04:38:57.196Z,17.84
2017-05-17T04:39:37.730Z,17.95
2017-05-17T04:40:18.290Z,17.87
2017-05-17T04:40:58.851Z,17.92
2017-05-17T04:41:39.385Z,17.93
2017-05-17T04:42:19.912Z,17.89
2017-05-17T04:43:00.492Z,17.96
2017-05-17T04:43:41.052Z,17.93
2017-05-17T04:44:21.598Z,17.92
2017-05-17T04:45:02.150Z,17.9
2017-05-17T04:45:42.725Z,17.93
2017-05-17T04:46:23.254Z,17.95
2017-05-17T04:47:03.783Z,17.9
2017-05-17T04:47:44.306Z,17.9
2017-05-17T04:48:24.835Z,17.95
2017-05-17T04:49:05.391Z,17.95
2017-05-17T04:49:45.917Z,17.92
2017-05-17T04:50:26.429Z,17.97
2017-05-17T04:51:06.948Z,17.92
2017-05-17T04:51:47.478Z,17.92
2017-05-17T04:52:28.019Z,17.92
2017-05-17T04:53:08.556Z,17.93
2017-05-17T04:53:49.104Z,17.95
2017-05-17T04:54:29.654Z,17.99
2017-05-17T04:55:10.217Z,17.9
2017-05-17T04:55:50.793Z,17.96
2017-05-17T04:56:31.325Z,17.96
2017-05-17T04:57:11.877Z,17.96
2017-05-17T04:57:52.411Z,18
2017-05-17T04:58:32.952Z,17.95
2017-05-17T04:59:13.505Z,18
2017-05-17T04:59:54.070Z,17.93
2017-05-17T05:00:34.629Z,17.96
2017-05-17T05:01:15.189Z,17.97
2017-05-17T05:01:55.704Z,17.95
2017-05-17T05:02:36.281Z,18
2017-05-17T05:03:16.856Z,17.99
2017-05-17T05:03:57.334Z,18.08
2017-05-17T05:04:37.890Z,17.99
2017-05-17T05:05:18.444Z,17.96
2017-05-17T05:05:58.993Z,17.93
2017-05-17T05:06:39.649Z,18
2017-05-17T05:07:20.287Z,17.92
2017-05-17T05:08:00.834Z,17.99
2017-05-17T05:08:41.400Z,17.95
2017-05-17T05:09:21.951Z,17.92
2017-05-17T05:10:02.545Z,17.92
2017-05-17T05:10:43.066Z,17.97
2017-05-17T05:11:23.655Z,17.92
2017-05-17T05:12:04.224Z,18.03
2017-05-17T05:12:44.734Z,17.99
2017-05-17T05:13:25.282Z,17.96
2017-05-17T05:14:05.863Z,18.02
2017-05-17T05:14:46.400Z,18.12
2017-05-17T05:15:26.959Z,18.05
2017-05-17T05:16:07.481Z,18.05
2017-05-17T05:16:48.033Z,18.05
2017-05-17T05:17:28.569Z,18.11
2017-05-17T05:18:09.143Z,18.11
2017-05-17T05:18:49.707Z,18.1
2017-05-17T05:19:30.275Z,18.08
2017-05-17T05:20:10.847Z,18.11
2017-05-17T05:20:51.381Z,18.1
2017-05-17T05:21:31.944Z,18.11
2017-05-17T05:22:12.710Z,18.1
2017-05-17T05:22:53.415Z,18.12
2017-05-17T05:23:34.640Z,18.12
2017-05-17T05:24:15.197Z,18.07
2017-05-17T05:24:55.784Z,18.14
2017-05-17T05:25:36.331Z,18.15
2017-05-17T05:26:16.878Z,18.08
2017-05-17T05:26:58.038Z,18.12
2017-05-17T05:27:39.025Z,18.11
2017-05-17T05:28:20.069Z,18.15
2017-05-17T05:29:00.618Z,18.2
2017-05-17T05:29:41.173Z,18.1
2017-05-17T05:30:21.732Z,18.11
2017-05-17T05:31:02.272Z,18.1
2017-05-17T05:31:42.816Z,18.14
2017-05-17T05:32:23.394Z,18.15
2017-05-17T05:33:03.935Z,18.17
2017-05-17T05:33:44.479Z,18.12
2017-05-17T05:34:25.087Z,18.14
2017-05-17T05:35:05.571Z,18.11
2017-05-17T05:35:46.120Z,18.11
2017-05-17T05:36:27.178Z,18.14
2017-05-17T05:37:07.737Z,18.12
2017-05-17T05:37:48.290Z,18.15
2017-05-17T05:38:28.840Z,18.12
2017-05-17T05:39:09.386Z,18.14
2017-05-17T05:39:49.947Z,18.2
2017-05-17T05:40:30.492Z,18.11
2017-05-17T05:41:11.089Z,18.17
2017-05-17T05:41:51.645Z,18.14
2017-05-17T05:42:32.261Z,18.08
2017-05-17T05:43:12.789Z,18.12
2017-05-17T05:43:53.375Z,18.14
2017-05-17T05:44:33.917Z,18.15
2017-05-17T05:45:14.449Z,18.12
2017-05-17T05:45:55.000Z,18.11
2017-05-17T05:46:35.531Z,18.14
2017-05-17T05:47:16.107Z,18.18
2017-05-17T05:47:56.652Z,18.2
2017-05-17T05:48:37.194Z,18.26
2017-05-17T05:49:17.731Z,18.17
2017-05-17T05:49:58.336Z,18.29
2017-05-17T05:50:38.877Z,18.3
2017-05-17T05:51:19.413Z,18.27
2017-05-17T05:51:59.964Z,18.25
2017-05-17T05:52:40.512Z,18.37
2017-05-17T05:53:21.038Z,18.3
2017-05-17T05:54:02.933Z,18.37
2017-05-17T05:54:44.226Z,18.32
2017-05-17T05:55:25.396Z,18.33
2017-05-17T05:56:05.948Z,18.36
2017-05-17T05:56:46.484Z,18.48
2017-05-17T05:57:27.039Z,18.47
2017-05-17T05:58:07.580Z,18.5
2017-05-17T05:58:48.100Z,18.45
2017-05-17T05:59:28.654Z,18.47
2017-05-17T06:00:09.199Z,18.5
2017-05-17T06:00:49.751Z,18.52
2017-05-17T06:01:30.303Z,18.51
2017-05-17T06:02:10.862Z,18.5
2017-05-17T06:02:51.430Z,18.57
2017-05-17T06:03:31.994Z,18.6
2017-05-17T06:04:12.500Z,18.63
2017-05-17T06:04:53.037Z,18.69
2017-05-17T06:05:33.595Z,18.7
2017-05-17T06:06:14.146Z,18.72
2017-05-17T06:06:54.701Z,18.69
2017-05-17T06:07:35.290Z,18.73
2017-05-17T06:08:15.850Z,18.69
2017-05-17T06:08:56.393Z,18.7
2017-05-17T06:09:36.913Z,18.8
2017-05-17T06:10:17.501Z,18.8
2017-05-17T06:10:58.010Z,18.82
2017-05-17T06:11:38.553Z,18.81
2017-05-17T06:12:19.115Z,18.82
2017-05-17T06:12:59.657Z,18.81
2017-05-17T06:13:40.208Z,18.82
2017-05-17T06:14:20.772Z,18.88
2017-05-17T06:15:01.324Z,18.84
2017-05-17T06:15:41.901Z,18.85
2017-05-17T06:16:22.447Z,18.88
2017-05-17T06:17:03.018Z,18.82
2017-05-17T06:17:43.561Z,18.88
2017-05-17T06:18:24.107Z,18.92
2017-05-17T06:19:04.662Z,18.88
2017-05-17T06:19:45.188Z,18.9
2017-05-17T06:20:25.753Z,18.91
2017-05-17T06:21:06.325Z,18.91
2017-05-17T06:21:46.863Z,18.92
2017-05-17T06:22:27.427Z,18.94
2017-05-17T06:23:08.587Z,18.94
2017-05-17T06:23:49.135Z,18.99
2017-05-17T06:24:29.681Z,18.99
2017-05-17T06:25:10.224Z,18.92
2017-05-17T06:25:50.780Z,18.92
2017-05-17T06:26:31.337Z,19.04
2017-05-17T06:27:11.884Z,19.04
2017-05-17T06:27:52.425Z,18.98
2017-05-17T06:28:32.995Z,18.99
2017-05-17T06:29:13.539Z,19.02
2017-05-17T06:29:54.103Z,18.99
2017-05-17T06:30:34.641Z,18.95
2017-05-17T06:31:15.167Z,18.91
2017-05-17T06:31:55.712Z,18.92
2017-05-17T06:32:36.286Z,18.95
2017-05-17T06:33:16.856Z,18.94
2017-05-17T06:33:57.406Z,18.94
2017-05-17T06:34:37.952Z,19
2017-05-17T06:35:18.566Z,18.94
2017-05-17T06:35:59.142Z,18.95
2017-05-17T06:36:39.713Z,18.99
2017-05-17T06:37:20.264Z,18.84
2017-05-17T06:38:00.799Z,18.95
2017-05-17T06:40:00.125Z,18.91
2017-05-17T06:40:40.757Z,18.88
2017-05-17T06:41:21.357Z,18.95
2017-05-17T06:42:01.999Z,19.04
2017-05-17T06:42:42.639Z,18.91
2017-05-17T06:43:23.200Z,18.94
2017-05-17T06:44:03.748Z,19.02
2017-05-17T06:44:44.318Z,19.1
2017-05-17T06:45:24.878Z,19.13
2017-05-17T06:46:05.452Z,19.21
2017-05-17T06:46:45.996Z,19.19
2017-05-17T06:47:26.568Z,19.16
2017-05-17T06:48:07.128Z,19.22
2017-05-17T06:48:47.672Z,19.26
2017-05-17T06:49:28.225Z,19.26
2017-05-17T06:50:08.772Z,19.28
2017-05-17T06:50:49.318Z,19.28
2017-05-17T06:51:29.849Z,19.31
2017-05-17T06:52:10.404Z,19.31
2017-05-17T06:52:50.982Z,19.32
2017-05-17T06:53:31.519Z,19.37
2017-05-17T06:54:12.088Z,19.4
2017-05-17T06:54:52.606Z,19.54
2017-05-17T06:55:33.177Z,19.65
2017-05-17T06:56:13.733Z,19.58
2017-05-17T06:56:54.282Z,19.59
2017-05-17T06:57:34.882Z,19.69
2017-05-17T06:58:15.431Z,19.76
2017-05-17T06:58:56.012Z,19.77
2017-05-17T06:59:36.599Z,19.77
2017-05-17T07:00:17.132Z,19.71
2017-05-17T07:00:57.731Z,19.78
2017-05-17T07:01:38.275Z,19.73
2017-05-17T07:02:18.826Z,19.71
2017-05-17T07:02:59.377Z,19.76
2017-05-17T07:03:40.005Z,19.8
2017-05-17T07:04:20.544Z,19.74
2017-05-17T07:05:01.092Z,19.77
2017-05-17T07:05:41.682Z,19.81
2017-05-17T07:06:22.235Z,19.78
2017-05-17T07:07:02.796Z,19.78
2017-05-17T07:07:43.364Z,19.87
2017-05-17T07:08:23.917Z,19.87
2017-05-17T07:09:04.547Z,20.01
2017-05-17T07:09:45.112Z,19.96
2017-05-17T07:10:25.665Z,20.06
2017-05-17T07:11:06.223Z,20.21
2017-05-17T07:11:46.766Z,20.17
2017-05-17T07:12:27.350Z,20.23
2017-05-17T07:13:07.891Z,20.32
2017-05-17T07:13:48.472Z,20.26
2017-05-17T07:14:29.012Z,20.31
2017-05-17T07:15:09.562Z,20.43
2017-05-17T07:15:50.133Z,20.48
2017-05-17T07:16:30.680Z,20.48
2017-05-17T07:17:11.251Z,20.54
2017-05-17T07:17:51.803Z,20.61
2017-05-17T07:18:32.387Z,20.62
2017-05-17T07:19:12.933Z,20.7
2017-05-17T07:19:53.524Z,20.79
2017-05-17T07:20:34.077Z,20.95
2017-05-17T07:21:14.631Z,20.98
2017-05-17T07:21:55.184Z,21.03
2017-05-17T07:22:35.732Z,21.19
2017-05-17T07:23:16.280Z,21.13
2017-05-17T07:23:56.875Z,21.14
2017-05-17T07:24:37.391Z,21.14
2017-05-17T07:25:17.943Z,21.14
2017-05-17T07:25:58.466Z,21.13
2017-05-17T07:26:39.036Z,21.25
2017-05-17T07:27:19.545Z,21.21
2017-05-17T07:28:00.112Z,21.21
2017-05-17T07:28:40.685Z,21.17
2017-05-17T07:29:21.247Z,21.07
2017-05-17T07:30:01.794Z,20.94
2017-05-17T07:30:42.355Z,21.03
2017-05-17T07:31:22.895Z,20.94
2017-05-17T07:32:03.446Z,20.94
2017-05-17T07:32:43.991Z,20.97
2017-05-17T07:33:24.555Z,21.06
2017-05-17T07:34:05.100Z,21.1
2017-05-17T07:34:45.688Z,21.01
2017-05-17T07:35:26.240Z,21.13
2017-05-17T07:36:06.797Z,21.14
2017-05-17T07:36:47.370Z,21.21
2017-05-17T07:37:27.940Z,21.14
2017-05-17T07:38:08.558Z,21.19
2017-05-17T07:38:49.104Z,21.19
2017-05-17T07:39:29.688Z,21.19
2017-05-17T07:40:10.263Z,21.34
2017-05-17T07:40:50.812Z,21.4
2017-05-17T07:41:31.343Z,21.44
2017-05-17T07:42:11.894Z,21.58
2017-05-17T07:42:52.437Z,21.65
2017-05-17T07:43:33.008Z,21.65
2017-05-17T07:44:13.551Z,21.67
2017-05-17T07:44:54.115Z,21.8
2017-05-17T07:45:34.671Z,21.86
2017-05-17T07:46:15.209Z,21.88
2017-05-17T07:46:55.761Z,22.07
2017-05-17T07:47:36.310Z,22.09
2017-05-17T07:48:16.871Z,22.1
2017-05-17T07:48:57.430Z,22.28
2017-05-17T07:49:37.977Z,22.3
2017-05-17T07:50:18.530Z,22.45
2017-05-17T07:50:59.083Z,22.49
2017-05-17T07:51:39.634Z,22.55
2017-05-17T07:52:20.187Z,22.73
2017-05-17T07:53:00.736Z,22.76
2017-05-17T07:53:41.287Z,22.75
2017-05-17T07:54:21.837Z,22.82
2017-05-17T07:55:02.388Z,22.86
2017-05-17T07:55:42.934Z,22.97
2017-05-17T07:56:23.487Z,22.98
2017-05-17T07:57:04.038Z,23.07
2017-05-17T07:57:44.628Z,23.2
2017-05-17T07:58:25.178Z,23.32
2017-05-17T07:59:05.728Z,23.48
2017-05-17T07:59:46.274Z,23.76
2017-05-17T08:00:26.831Z,23.87
2017-05-17T08:01:07.372Z,24
2017-05-17T08:01:47.921Z,24.08
2017-05-17T08:02:28.478Z,24.16
2017-05-17T08:03:09.045Z,24.21
2017-05-17T08:03:49.603Z,24.37
2017-05-17T08:04:30.156Z,24.49
2017-05-17T08:05:10.715Z,24.67
2017-05-17T08:05:51.295Z,24.76
2017-05-17T08:06:31.873Z,24.95
2017-05-17T08:07:12.450Z,25.2
2017-05-17T08:07:53.043Z,25.43
2017-05-17T08:08:33.583Z,25.54
2017-05-17T08:09:14.146Z,25.8
2017-05-17T08:09:54.720Z,25.94
2017-05-17T08:10:35.257Z,26.06
2017-05-17T08:11:15.814Z,26.09
2017-05-17T08:11:56.365Z,26.23
2017-05-17T08:12:36.943Z,26.33
2017-05-17T08:13:17.482Z,26.37
2017-05-17T08:13:58.024Z,26.4
2017-05-17T08:14:38.559Z,26.47
2017-05-17T08:15:19.115Z,26.3
2017-05-17T08:15:59.681Z,26.13
2017-05-17T08:16:40.249Z,26.17
2017-05-17T08:17:20.798Z,26.02
2017-05-17T08:18:01.388Z,26.01
2017-05-17T08:18:42.070Z,26.01
2017-05-17T08:19:22.601Z,25.92
2017-05-17T08:20:03.179Z,25.87
2017-05-17T08:20:43.733Z,25.7
2017-05-17T08:21:24.304Z,25.51
2017-05-17T08:22:04.853Z,25.38
2017-05-17T08:22:45.409Z,25.23
2017-05-17T08:23:26.000Z,25.21
2017-05-17T08:24:06.559Z,25.06
2017-05-17T08:24:47.127Z,25.1
2017-05-17T08:25:27.663Z,24.96
2017-05-17T08:26:08.233Z,25.13
2017-05-17T08:26:48.787Z,25.08
2017-05-17T08:27:29.318Z,25.21
2017-05-17T08:28:09.864Z,25.25
2017-05-17T08:28:50.417Z,25.28
2017-05-17T08:29:30.981Z,25.45
2017-05-17T08:30:11.547Z,25.5
2017-05-17T08:30:52.107Z,25.55
2017-05-17T08:31:32.668Z,25.54
2017-05-17T08:32:13.213Z,25.51
2017-05-17T08:32:53.750Z,25.57
2017-05-17T08:33:34.293Z,25.5
2017-05-17T08:34:14.856Z,25.62
2017-05-17T08:34:55.404Z,25.7
2017-05-17T08:35:35.945Z,25.9
2017-05-17T08:36:16.503Z,25.92
2017-05-17T08:36:57.056Z,26.07
2017-05-17T08:37:37.598Z,26.1
2017-05-17T08:38:18.150Z,26.29
2017-05-17T08:38:58.701Z,26.35
2017-05-17T08:39:39.264Z,26.4
2017-05-17T08:40:19.871Z,26.47
2017-05-17T08:41:00.423Z,26.63
2017-05-17T08:41:41.033Z,26.77
2017-05-17T08:42:21.678Z,26.92
2017-05-17T08:43:02.192Z,26.99
2017-05-17T08:43:42.766Z,27.22
2017-05-17T08:44:23.328Z,27.28
2017-05-17T08:45:03.861Z,27.37
2017-05-17T08:45:44.434Z,27.47
2017-05-17T08:46:24.971Z,27.6